Time;durP1;ratioP1;P1;durP2;ratioP2;P2;SDS_P1;SDS_P2;PMS_P1;PMS_P2;Temp;Humidity;BMP_temperature;BMP_pressure;BME280_temperature;BME280_humidity;BME280_pressure;Samples;Min_cycle;Max_cycle;Signal;HPM_P1;HPM_P2
2023/06/18 04:01:43;;;;;;;0.60;0.20;;;20.50;1.00;;;;;;5444901;23;20498;-72
2023/06/18 04:04:11;;;;;;;0.60;0.20;;;20.40;1.00;;;;;;4954796;29;20447;-71
2023/06/18 04:06:39;;;;;;;0.60;0.20;;;20.20;1.00;;;;;;4955354;28;20887;-71
2023/06/18 04:09:07;;;;;;;0.60;0.20;;;20.20;1.00;;;;;;4955640;29;20521;-72
2023/06/18 04:11:36;;;;;;;0.60;0.10;;;20.00;1.00;;;;;;4954962;29;20466;-72
2023/06/18 04:14:04;;;;;;;0.60;0.20;;;19.90;1.00;;;;;;4984349;23;20493;-71
2023/06/18 04:16:32;;;;;;;0.60;0.20;;;19.90;1.00;;;;;;4993865;28;20547;-73
2023/06/18 04:19:02;;;;;;;0.60;0.10;;;20.00;1.00;;;;;;4993672;28;20429;-70
2023/06/18 04:21:30;;;;;;;0.60;0.20;;;;;;;;;;4994320;28;20457;-70
2023/06/18 04:23:59;;;;;;;0.60;0.10;;;20.10;1.00;;;;;;4989014;28;21080;-71
2023/06/18 04:26:27;;;;;;;0.60;0.30;;;20.10;1.00;;;;;;4974370;28;20461;-71
2023/06/18 04:28:55;;;;;;;1.37;0.40;;;20.10;1.00;;;;;;4974282;28;20486;-71
2023/06/18 04:31:24;;;;;;;0.60;0.20;;;;;;;;;;4978271;28;20536;-71
2023/06/18 04:33:52;;;;;;;1.47;1.23;;;20.00;1.00;;;;;;4985460;28;20469;-73
2023/06/18 04:36:21;;;;;;;0.60;0.20;;;20.00;1.00;;;;;;4994900;28;20469;-70
2023/06/18 04:38:49;;;;;;;0.60;0.10;;;20.00;1.00;;;;;;5000229;28;20453;-71
2023/06/18 04:41:17;;;;;;;4.30;3.90;;;19.90;1.00;;;;;;5001793;28;20509;-70
2023/06/18 04:43:45;;;;;;;0.60;0.10;;;19.80;1.00;;;;;;5003527;28;20498;-71
2023/06/18 04:46:13;;;;;;;0.60;0.20;;;19.60;1.00;;;;;;5005269;28;20495;-71
2023/06/18 04:48:41;;;;;;;0.73;0.50;;;19.60;1.00;;;;;;4998666;28;20493;-71
2023/06/18 04:51:09;;;;;;;0.60;0.30;;;19.70;1.00;;;;;;4975345;28;20485;-71
2023/06/18 04:53:39;;;;;;;0.80;0.20;;;19.60;1.00;;;;;;4974201;28;20454;-70
2023/06/18 04:56:06;;;;;;;9.47;8.83;;;19.60;1.00;;;;;;4974778;28;20496;-71
2023/06/18 04:58:36;;;;;;;0.60;0.20;;;19.60;1.00;;;;;;4974122;28;20497;-71
2023/06/18 05:01:04;;;;;;;0.60;0.20;;;19.70;1.00;;;;;;4974363;28;20453;-71
2023/06/18 05:03:32;;;;;;;0.60;0.10;;;19.70;1.00;;;;;;4973725;28;20468;-70
2023/06/18 05:06:00;;;;;;;0.60;0.10;;;19.80;1.00;;;;;;4973946;28;20461;-69
2023/06/18 05:08:28;;;;;;;0.60;0.20;;;19.90;1.00;;;;;;4973992;28;20568;-71
2023/06/18 05:10:57;;;;;;;0.70;0.33;;;20.00;1.00;;;;;;4964799;28;20502;-71
2023/06/18 05:13:25;;;;;;;0.73;0.50;;;;;;;;;;4971639;28;20552;-71
2023/06/18 05:15:54;;;;;;;0.60;0.20;;;;;;;;;;4974042;28;20541;-72
2023/06/18 05:18:21;;;;;;;0.60;0.20;;;20.00;1.00;;;;;;4973647;28;20859;-71
2023/06/18 05:20:49;;;;;;;0.60;0.20;;;19.90;1.00;;;;;;4973518;28;20485;-72
2023/06/18 05:23:17;;;;;;;0.60;0.20;;;20.00;1.00;;;;;;4966462;28;21012;-72
2023/06/18 05:25:46;;;;;;;1.17;1.07;;;;;;;;;;4965076;28;20509;-70
2023/06/18 05:28:15;;;;;;;0.60;0.20;;;19.90;1.00;;;;;;4966744;28;20489;-71
2023/06/18 05:30:43;;;;;;;0.80;0.57;;;19.90;1.00;;;;;;4973535;28;20450;-71
2023/06/18 05:33:11;;;;;;;0.77;0.40;;;19.90;1.00;;;;;;4972934;28;20954;-71
2023/06/18 05:35:39;;;;;;;0.60;0.20;;;20.00;1.00;;;;;;4973401;28;20555;-71
2023/06/18 05:38:07;;;;;;;0.60;0.10;;;19.90;1.00;;;;;;4973229;28;20461;-70
2023/06/18 05:40:35;;;;;;;0.60;0.10;;;20.00;1.00;;;;;;4972986;28;20461;-70
2023/06/18 05:43:03;;;;;;;0.60;0.20;;;20.10;1.00;;;;;;4973080;28;20438;-71
2023/06/18 05:45:32;;;;;;;0.60;0.10;;;20.10;1.00;;;;;;4973333;28;20497;-71
2023/06/18 05:48:00;;;;;;;0.60;0.13;;;20.10;1.00;;;;;;4973111;28;20488;-71
2023/06/18 05:50:28;;;;;;;0.60;0.20;;;20.20;1.00;;;;;;4972796;28;20490;-72
2023/06/18 05:52:56;;;;;;;0.60;0.10;;;20.40;1.00;;;;;;4972840;28;20967;-70
2023/06/18 05:55:24;;;;;;;0.60;0.20;;;20.50;1.00;;;;;;4972874;28;20556;-70
2023/06/18 05:57:52;;;;;;;0.60;0.10;;;20.60;1.00;;;;;;4972963;28;20514;-70
2023/06/18 06:00:19;;;;;;;0.80;0.43;;;20.70;1.00;;;;;;4972899;28;20496;-70
2023/06/18 06:02:49;;;;;;;0.60;0.30;;;20.70;1.00;;;;;;4972871;28;20466;-70
2023/06/18 06:05:17;;;;;;;0.60;0.20;;;20.70;1.00;;;;;;4972430;28;20505;-71
2023/06/18 06:07:45;;;;;;;0.70;0.20;;;20.70;1.00;;;;;;4969449;28;20506;-70
2023/06/18 06:10:14;;;;;;;0.60;0.13;;;20.70;1.00;;;;;;4955387;28;20482;-71
2023/06/18 06:12:42;;;;;;;0.60;0.10;;;;;;;;;;4971879;28;20464;-71
2023/06/18 06:15:10;;;;;;;0.60;0.20;;;20.60;1.00;;;;;;4957171;28;20849;-71
2023/06/18 06:17:38;;;;;;;0.60;0.20;;;20.70;1.00;;;;;;4953268;28;20535;-71
2023/06/18 06:20:08;;;;;;;1.80;1.70;;;20.80;1.00;;;;;;4953282;28;20498;-71
2023/06/18 06:22:36;;;;;;;0.60;0.10;;;20.90;1.00;;;;;;4953696;28;20447;-71
2023/06/18 06:25:05;;;;;;;0.70;0.20;;;;;;;;;;4962860;28;20468;-70
2023/06/18 06:27:34;;;;;;;0.60;0.10;;;21.00;1.00;;;;;;4976200;28;20446;-71
2023/06/18 06:30:03;;;;;;;0.60;0.10;;;;;;;;;;4975429;28;20964;-71
2023/06/18 06:32:33;;;;;;;0.80;0.77;;;21.10;1.00;;;;;;4975802;28;20454;-70
2023/06/18 06:35:01;;;;;;;0.60;0.10;;;21.10;1.00;;;;;;4975826;28;20469;-69
2023/06/18 06:37:32;;;;;;;0.60;0.10;;;21.10;1.00;;;;;;4975879;28;20544;-71
2023/06/18 06:40:00;;;;;;;1.00;0.80;;;21.10;1.00;;;;;;4975536;28;20527;-71
2023/06/18 06:42:28;;;;;;;0.60;0.10;;;21.20;1.00;;;;;;4975429;28;20808;-71
2023/06/18 06:44:56;;;;;;;0.60;0.20;;;21.20;1.00;;;;;;4975872;28;20546;-71
2023/06/18 06:47:24;;;;;;;0.60;0.10;;;21.40;1.00;;;;;;4975377;28;20461;-71
2023/06/18 06:49:52;;;;;;;0.60;0.20;;;21.50;1.00;;;;;;4975446;28;20536;-70
2023/06/18 06:52:20;;;;;;;0.60;0.30;;;21.50;1.00;;;;;;4975456;28;20852;-69
2023/06/18 06:54:51;;;;;;;0.60;0.20;;;21.60;1.00;;;;;;4975794;28;20469;-71
2023/06/18 06:57:19;;;;;;;0.60;0.20;;;;;;;;;;4976023;28;20937;-72
2023/06/18 06:59:47;;;;;;;0.70;0.10;;;21.80;1.00;;;;;;4976068;28;20442;-72
2023/06/18 07:02:15;;;;;;;0.70;0.10;;;21.90;1.00;;;;;;4975564;28;20814;-70
2023/06/18 07:04:46;;;;;;;0.70;0.20;;;21.90;1.00;;;;;;4975582;28;20551;-71
2023/06/18 07:07:14;;;;;;;0.70;0.20;;;21.80;1.00;;;;;;4975566;28;20450;-71
2023/06/18 07:09:42;;;;;;;0.70;0.10;;;21.90;1.00;;;;;;4975375;28;20510;-70
2023/06/18 07:12:11;;;;;;;0.80;0.30;;;22.00;1.00;;;;;;4958163;28;20539;-72
2023/06/18 07:14:39;;;;;;;0.60;0.10;;;22.00;1.00;;;;;;4956354;28;20491;-71
2023/06/18 07:17:07;;;;;;;0.70;0.10;;;22.10;1.00;;;;;;4956598;29;20486;-71
2023/06/18 07:19:35;;;;;;;0.67;0.17;;;;;;;;;;4956613;29;20444;-70
2023/06/18 07:22:04;;;;;;;0.70;0.20;;;22.20;1.00;;;;;;4963243;28;20487;-71
2023/06/18 07:24:32;;;;;;;0.70;0.20;;;22.30;1.00;;;;;;4974811;28;20509;-70
2023/06/18 07:27:00;;;;;;;0.70;0.10;;;22.40;1.00;;;;;;4976084;28;20461;-71
2023/06/18 07:29:30;;;;;;;0.70;0.10;;;22.60;1.00;;;;;;4975384;28;20497;-71
2023/06/18 07:31:57;;;;;;;0.70;0.10;;;22.60;1.00;;;;;;4975129;28;20982;-72
2023/06/18 07:34:25;;;;;;;0.70;0.10;;;22.70;1.00;;;;;;4974593;28;20506;-73
2023/06/18 07:36:54;;;;;;;0.70;0.10;;;;;;;;;;4975700;28;20448;-71
2023/06/18 07:39:22;;;;;;;0.70;0.10;;;;;;;;;;4974884;28;20484;-73
2023/06/18 07:41:50;;;;;;;0.70;0.10;;;22.90;1.00;;;;;;4971398;28;20467;-72
2023/06/18 07:44:18;;;;;;;2.30;2.20;;;23.00;1.00;;;;;;4980466;28;20482;-71
2023/06/18 07:46:48;;;;;;;0.70;0.10;;;23.00;1.00;;;;;;4985223;28;20537;-71
2023/06/18 07:49:20;;;;;;;0.70;0.10;;;;;;;;;;4991851;28;20443;-73
2023/06/18 07:51:49;;;;;;;0.70;0.20;;;23.20;1.00;;;;;;4975224;28;21179;-71
2023/06/18 07:54:17;;;;;;;0.70;0.20;;;23.20;1.00;;;;;;4975174;28;20479;-72
2023/06/18 07:56:45;;;;;;;0.70;0.20;;;23.20;1.00;;;;;;4979679;28;20451;-72
2023/06/18 07:59:13;;;;;;;0.70;0.20;;;23.20;1.00;;;;;;4988084;28;20445;-72
2023/06/18 08:01:41;;;;;;;0.70;0.17;;;23.20;1.00;;;;;;4988421;28;20487;-71
2023/06/18 08:04:10;;;;;;;0.70;0.20;;;23.30;1.00;;;;;;4977779;28;20472;-71
2023/06/18 08:06:38;;;;;;;0.80;0.30;;;;;;;;;;4977372;28;20571;-74
2023/06/18 08:09:06;;;;;;;0.70;0.20;;;;;;;;;;4975407;28;20459;-73
2023/06/18 08:11:35;;;;;;;0.70;0.20;;;;;;;;;;4974777;28;20480;-73
2023/06/18 08:14:04;;;;;;;0.70;0.20;;;;;;;;;;4969616;28;20506;-72
2023/06/18 08:16:32;;;;;;;0.70;0.10;;;23.50;1.00;;;;;;4971115;28;20447;-74
2023/06/18 08:19:00;;;;;;;0.70;0.20;;;23.70;1.00;;;;;;4975736;28;20503;-74
2023/06/18 08:21:30;;;;;;;0.70;0.20;;;23.70;1.00;;;;;;4976999;28;20523;-76
2023/06/18 08:23:58;;;;;;;0.70;0.10;;;23.70;1.00;;;;;;4976641;28;20970;-72
2023/06/18 08:26:26;;;;;;;0.70;0.20;;;23.70;1.00;;;;;;4977161;28;20455;-72
2023/06/18 08:28:54;;;;;;;0.70;0.10;;;23.90;1.00;;;;;;4979179;28;20462;-74
2023/06/18 08:31:22;;;;;;;0.70;0.10;;;24.00;1.00;;;;;;4971589;28;20493;-74
2023/06/18 08:33:50;;;;;;;0.70;0.13;;;;;;;;;;4980478;28;20589;-76
2023/06/18 08:36:20;;;;;;;2.93;2.83;;;24.20;1.00;;;;;;4978072;28;20446;-74
2023/06/18 08:38:50;;;;;;;0.70;0.10;;;24.20;1.00;;;;;;4985222;28;20447;-72
2023/06/18 08:41:18;;;;;;;0.70;0.10;;;24.30;1.00;;;;;;4974330;28;20475;-73
2023/06/18 08:43:46;;;;;;;0.83;0.30;;;24.50;1.00;;;;;;4970951;28;20526;-70
2023/06/18 08:46:15;;;;;;;0.70;0.20;;;24.50;1.00;;;;;;4968079;28;20865;-72
2023/06/18 08:48:45;;;;;;;0.70;0.20;;;24.60;1.00;;;;;;4965566;28;20854;-72
2023/06/18 08:51:16;;;;;;;0.70;0.10;;;24.70;1.00;;;;;;4965963;28;20495;-74
2023/06/18 08:53:46;;;;;;;2.63;1.90;;;24.70;1.00;;;;;;4973665;28;20476;-75
2023/06/18 08:56:18;;;;;;;0.70;0.10;;;24.70;1.00;;;;;;4974026;28;20484;-73
2023/06/18 08:58:50;;;;;;;0.70;0.10;;;24.90;1.00;;;;;;4974047;28;20539;-72
2023/06/18 09:01:19;;;;;;;0.70;0.10;;;24.90;1.00;;;;;;4971262;28;20548;-72
2023/06/18 09:03:49;;;;;;;0.70;0.10;;;25.10;1.00;;;;;;4967731;28;20515;-72
2023/06/18 09:06:18;;;;;;;0.70;0.13;;;25.10;1.00;;;;;;4962832;28;20833;-72
2023/06/18 09:08:47;;;;;;;0.70;0.10;;;25.20;1.00;;;;;;4962579;28;20504;-72
2023/06/18 09:11:17;;;;;;;0.70;0.20;;;25.30;1.00;;;;;;4961673;28;20576;-71
2023/06/18 09:13:45;;;;;;;0.70;0.20;;;25.40;1.00;;;;;;4952584;28;20489;-72
2023/06/18 09:16:13;;;;;;;0.70;0.10;;;25.40;1.00;;;;;;4953654;29;20457;-71
2023/06/18 09:18:41;;;;;;;0.70;0.20;;;25.40;1.00;;;;;;4963435;28;20457;-70
2023/06/18 09:21:10;;;;;;;0.70;0.20;;;25.40;1.00;;;;;;4973324;28;20469;-71
2023/06/18 09:23:39;;;;;;;0.70;0.10;;;25.50;1.00;;;;;;4973713;28;20448;-71
2023/06/18 09:26:07;;;;;;;0.70;0.20;;;;;;;;;;4972864;28;20571;-72
2023/06/18 09:28:38;;;;;;;0.70;0.10;;;25.60;1.00;;;;;;4973268;28;20463;-74
2023/06/18 09:31:06;;;;;;;0.70;0.10;;;25.60;1.00;;;;;;4952984;28;20569;-73
2023/06/18 09:33:35;;;;;;;1.00;0.40;;;25.70;1.00;;;;;;4958740;28;20456;-74
2023/06/18 09:36:05;;;;;;;0.70;0.20;;;25.80;1.00;;;;;;4973759;28;20461;-74
2023/06/18 09:38:35;;;;;;;0.70;0.20;;;25.80;1.00;;;;;;4968468;28;20469;-74
2023/06/18 09:41:14;;;;;;;0.93;0.57;;;26.00;1.00;;;;;;4954107;28;20446;-73
2023/06/18 09:43:47;;;;;;;0.90;0.20;;;26.00;1.00;;;;;;4958571;28;20464;-77
2023/06/18 09:46:18;;;;;;;0.70;0.10;;;26.20;1.00;;;;;;4977866;28;20452;-78
2023/06/18 09:48:47;;;;;;;0.70;0.10;;;26.20;1.00;;;;;;4984040;28;20500;-75
2023/06/18 09:51:16;;;;;;;0.70;0.20;;;26.30;1.00;;;;;;4975161;28;21022;-76
2023/06/18 09:53:45;;;;;;;0.70;0.10;;;26.40;1.00;;;;;;4965645;28;20471;-76
2023/06/18 09:56:15;;;;;;;0.70;0.13;;;26.50;1.00;;;;;;4962744;28;20450;-75
2023/06/18 09:58:47;;;;;;;0.70;0.10;;;26.50;1.00;;;;;;4959270;28;20494;-75
2023/06/18 10:01:16;;;;;;;0.80;0.37;;;26.60;1.00;;;;;;4965765;28;20438;-75
2023/06/18 10:03:45;;;;;;;4.00;1.23;;;26.70;1.00;;;;;;4959254;28;20493;-77
2023/06/18 10:06:16;;;;;;;0.80;0.30;;;26.70;1.00;;;;;;4971246;28;20453;-74
2023/06/18 10:08:46;;;;;;;0.70;0.20;;;26.80;1.00;;;;;;4969555;28;20446;-74
2023/06/18 10:11:15;;;;;;;0.70;0.10;;;26.80;1.00;;;;;;4969444;28;20473;-75
2023/06/18 10:13:47;;;;;;;0.80;0.20;;;27.00;1.00;;;;;;4961839;28;20948;-74
2023/06/18 10:16:17;;;;;;;0.70;0.20;;;27.00;1.00;;;;;;4978422;28;20875;-73
2023/06/18 10:18:59;;;;;;;0.70;0.10;;;27.00;1.00;;;;;;4969041;28;20443;-74
2023/06/18 10:21:29;;;;;;;0.70;0.10;;;27.30;1.00;;;;;;4978931;28;20467;-75
2023/06/18 10:24:03;;;;;;;0.70;0.20;;;27.40;1.00;;;;;;4984958;28;20495;-75
2023/06/18 10:26:31;;;;;;;0.70;0.10;;;27.50;1.00;;;;;;4978048;28;20504;-74
2023/06/18 10:29:01;;;;;;;0.70;0.20;;;27.50;1.00;;;;;;4971950;28;20481;-75
2023/06/18 10:31:29;;;;;;;0.70;0.20;;;;;;;;;;4979936;28;20520;-76
2023/06/18 10:33:57;;;;;;;0.70;0.10;;;27.60;1.00;;;;;;4960813;28;20872;-77
2023/06/18 10:36:26;;;;;;;0.70;0.20;;;27.70;1.00;;;;;;4975100;28;20511;-74
2023/06/18 10:38:55;;;;;;;0.70;0.10;;;27.80;1.00;;;;;;4974194;28;20540;-75
2023/06/18 10:41:23;;;;;;;0.70;0.20;;;27.80;1.00;;;;;;4984238;28;20588;-76
2023/06/18 10:43:52;;;;;;;0.70;0.20;;;27.90;1.00;;;;;;4987386;28;20497;-76
2023/06/18 10:46:22;;;;;;;0.70;0.10;;;27.90;1.00;;;;;;4974319;28;20473;-77
2023/06/18 10:49:16;;;;;;;0.80;0.37;;;28.00;1.00;;;;;;4978539;28;20755;-77
2023/06/18 10:51:51;;;;;;;0.70;0.30;;;28.00;1.00;;;;;;4952012;28;20482;-78
2023/06/18 10:54:21;;;;;;;0.70;0.10;;;28.10;1.00;;;;;;4981874;28;20477;-78
2023/06/18 10:56:54;;;;;;;0.70;0.10;;;28.10;1.00;;;;;;4980726;28;20449;-74
2023/06/18 10:59:36;;;;;;;0.70;0.10;;;28.20;1.00;;;;;;4965498;28;20535;-79
2023/06/18 11:02:05;;;;;;;0.90;0.40;;;28.20;1.00;;;;;;4992196;28;20906;-78
2023/06/18 11:04:34;;;;;;;0.70;0.10;;;28.30;1.00;;;;;;4987994;28;20474;-77
2023/06/18 11:07:14;;;;;;;0.70;0.20;;;28.30;1.00;;;;;;4977633;28;20454;-76
2023/06/18 11:09:50;;;;;;;0.80;0.30;;;28.40;1.00;;;;;;4982638;28;20445;-77
2023/06/18 11:12:19;;;;;;;0.70;0.10;;;28.30;1.00;;;;;;4997343;28;20505;-76
2023/06/18 11:15:11;;;;;;;0.70;0.23;;;28.50;1.00;;;;;;4993800;28;20478;-72
2023/06/18 11:17:41;;;;;;;0.70;0.20;;;28.50;1.00;;;;;;4992879;28;20476;-76
2023/06/18 11:20:11;;;;;;;0.70;0.10;;;28.50;1.00;;;;;;4983549;28;20510;-76
2023/06/18 11:22:41;;;;;;;0.70;0.10;;;28.60;1.00;;;;;;4981986;28;20964;-75
2023/06/18 11:25:10;;;;;;;0.70;0.10;;;28.60;1.00;;;;;;4979142;28;21140;-76
2023/06/18 11:27:41;;;;;;;0.70;0.20;;;28.60;1.00;;;;;;4980113;28;20459;-74
2023/06/18 11:30:10;;;;;;;0.70;0.20;;;28.70;1.00;;;;;;4979015;28;20845;-77
2023/06/18 11:32:41;;;;;;;0.70;0.20;;;28.70;1.00;;;;;;4979141;28;20546;-75
2023/06/18 11:35:10;;;;;;;0.70;0.10;;;28.70;1.00;;;;;;4978989;28;20470;-75
2023/06/18 11:37:40;;;;;;;0.70;0.20;;;28.80;1.00;;;;;;4979619;28;20514;-76
2023/06/18 11:40:09;;;;;;;0.70;0.20;;;28.80;1.00;;;;;;4977665;28;20456;-73
2023/06/18 11:42:50;;;;;;;0.70;0.20;;;28.90;1.00;;;;;;4977485;28;20882;-74
2023/06/18 11:45:19;;;;;;;0.70;0.20;;;29.00;1.00;;;;;;4981489;28;20552;-75
2023/06/18 11:47:50;;;;;;;0.70;0.20;;;29.00;1.00;;;;;;4986249;28;20521;-70
2023/06/18 11:50:20;;;;;;;0.70;0.10;;;29.10;1.00;;;;;;4977007;28;20470;-70
2023/06/18 11:52:48;;;;;;;0.97;0.67;;;29.20;1.00;;;;;;4975928;28;20551;-70
2023/06/18 11:55:18;;;;;;;0.80;0.17;;;29.20;1.00;;;;;;4976409;28;20561;-69
2023/06/18 11:57:46;;;;;;;0.70;0.20;;;29.20;1.00;;;;;;4976294;28;20459;-70
2023/06/18 12:00:16;;;;;;;0.70;0.20;;;29.20;1.00;;;;;;4976526;28;20528;-70
2023/06/18 12:02:44;;;;;;;0.70;0.10;;;29.20;1.00;;;;;;4975761;28;20457;-70
2023/06/18 12:05:13;;;;;;;0.70;0.20;;;29.30;1.00;;;;;;4976033;28;20566;-70
2023/06/18 12:07:42;;;;;;;1.30;1.00;;;29.40;1.00;;;;;;4975859;28;20453;-70
2023/06/18 12:10:12;;;;;;;2.07;0.47;;;29.40;1.00;;;;;;4975511;28;20463;-69
2023/06/18 12:12:56;;;;;;;0.70;0.13;;;29.40;1.00;;;;;;4957482;29;20881;-71
2023/06/18 12:15:30;;;;;;;0.70;0.20;;;29.50;1.00;;;;;;4961793;28;21025;-70
2023/06/18 12:18:00;;;;;;;0.70;0.30;;;29.50;1.00;;;;;;4975914;28;20981;-70
2023/06/18 12:20:30;;;;;;;0.80;0.33;;;29.50;1.00;;;;;;4975331;28;20543;-70
2023/06/18 12:23:01;;;;;;;0.80;0.37;;;29.60;1.00;;;;;;4975801;28;20453;-70
2023/06/18 12:25:30;;;;;;;0.70;0.20;;;29.60;1.00;;;;;;4976395;28;20496;-71
2023/06/18 12:27:59;;;;;;;1.20;0.70;;;29.60;1.00;;;;;;4976323;28;20532;-71
2023/06/18 12:30:33;;;;;;;1.13;0.20;;;29.50;1.00;;;;;;4968061;28;20472;-72
2023/06/18 12:33:02;;;;;;;0.70;0.30;;;29.50;1.00;;;;;;4982432;28;20484;-73
2023/06/18 12:35:32;;;;;;;0.80;0.20;;;29.50;1.00;;;;;;4973456;28;20472;-72
2023/06/18 12:38:05;;;;;;;0.70;0.20;;;29.40;1.00;;;;;;4965813;28;20487;-73
2023/06/18 12:40:35;;;;;;;0.80;0.20;;;29.50;1.00;;;;;;4965716;28;20483;-73
2023/06/18 12:43:08;;;;;;;0.70;0.20;;;29.60;1.00;;;;;;4971488;28;20535;-73
2023/06/18 12:45:37;;;;;;;0.70;0.20;;;29.70;1.00;;;;;;4957982;28;20874;-73
2023/06/18 12:48:13;;;;;;;5.37;1.43;;;29.70;1.00;;;;;;4974551;28;20438;-73
2023/06/18 12:50:45;;;;;;;2.00;1.83;;;29.70;1.00;;;;;;4970474;28;20792;-75
2023/06/18 12:53:14;;;;;;;0.70;0.20;;;29.90;1.00;;;;;;4973089;28;20526;-72
2023/06/18 12:55:45;;;;;;;0.70;0.20;;;30.10;1.00;;;;;;4973468;28;20472;-72
2023/06/18 12:58:15;;;;;;;0.70;0.20;;;30.10;1.00;;;;;;4974043;28;20485;-75
2023/06/18 13:00:44;;;;;;;0.70;0.20;;;30.20;1.00;;;;;;4973838;28;20448;-73
2023/06/18 13:03:12;;;;;;;0.70;0.10;;;30.10;1.00;;;;;;4971852;28;20958;-75
2023/06/18 13:05:42;;;;;;;0.90;0.43;;;30.20;1.00;;;;;;4956030;28;20833;-74
2023/06/18 13:08:14;;;;;;;0.73;0.27;;;30.00;1.00;;;;;;4955934;29;21028;-76
2023/06/18 13:10:42;;;;;;;0.70;0.10;;;30.00;1.00;;;;;;4955559;29;20430;-76
2023/06/18 13:13:10;;;;;;;0.70;0.10;;;30.00;1.00;;;;;;4954980;29;20489;-79
2023/06/18 13:15:38;;;;;;;0.90;0.53;;;30.10;1.00;;;;;;4954805;28;20621;-72
2023/06/18 13:18:06;;;;;;;1.00;0.77;;;30.20;1.00;;;;;;4972772;28;20452;-73
2023/06/18 13:20:34;;;;;;;0.70;0.20;;;30.30;1.00;;;;;;4978425;28;20453;-71
2023/06/18 13:23:04;;;;;;;0.70;0.20;;;30.20;1.00;;;;;;4961674;28;20449;-71
2023/06/18 13:25:34;;;;;;;0.70;0.20;;;30.20;1.00;;;;;;4957963;28;20513;-72
2023/06/18 13:28:02;;;;;;;0.70;0.10;;;30.40;1.00;;;;;;4973246;28;20452;-71
2023/06/18 13:30:32;;;;;;;0.70;0.30;;;30.40;1.00;;;;;;4973371;28;20476;-71
2023/06/18 13:33:00;;;;;;;0.70;0.20;;;30.40;1.00;;;;;;4971604;28;20571;-70
2023/06/18 13:35:30;;;;;;;0.90;0.40;;;30.50;1.00;;;;;;4973232;28;20982;-71
2023/06/18 13:37:58;;;;;;;0.90;0.67;;;30.60;1.00;;;;;;4973279;28;20449;-70
2023/06/18 13:40:26;;;;;;;0.70;0.20;;;30.70;1.00;;;;;;4973394;28;20445;-71
2023/06/18 13:42:58;;;;;;;0.70;0.27;;;;;;;;;;4972752;28;20484;-71
2023/06/18 13:45:26;;;;;;;1.00;0.50;;;30.70;1.00;;;;;;4972483;28;20524;-71
2023/06/18 13:47:54;;;;;;;0.70;0.20;;;30.60;1.00;;;;;;4960396;28;20476;-71
2023/06/18 13:50:24;;;;;;;0.70;0.20;;;30.70;1.00;;;;;;4979585;28;20590;-70
2023/06/18 13:52:52;;;;;;;0.70;0.17;;;30.70;1.00;;;;;;4983917;28;20510;-71
2023/06/18 13:55:20;;;;;;;0.70;0.20;;;30.80;1.00;;;;;;4989846;28;21002;-71
2023/06/18 13:57:49;;;;;;;0.70;0.20;;;30.80;1.00;;;;;;4973079;28;20615;-72
2023/06/18 14:00:19;;;;;;;0.70;0.20;;;30.90;1.00;;;;;;4972814;28;20446;-72
2023/06/18 14:02:47;;;;;;;0.90;0.37;;;30.80;1.00;;;;;;4972716;28;20460;-73
2023/06/18 14:05:16;;;;;;;0.70;0.20;;;30.80;1.00;;;;;;4976132;28;20491;-70
2023/06/18 14:07:44;;;;;;;1.37;0.20;;;30.80;1.00;;;;;;4984371;28;20440;-71
2023/06/18 14:10:12;;;;;;;0.70;0.20;;;30.80;1.00;;;;;;4990272;28;20875;-72
2023/06/18 14:12:40;;;;;;;0.87;0.50;;;31.10;1.00;;;;;;4975500;28;20524;-72
2023/06/18 14:15:10;;;;;;;0.70;0.20;;;31.20;1.00;;;;;;4971093;28;20544;-72
2023/06/18 14:17:45;;;;;;;0.70;0.20;;;31.30;1.00;;;;;;4967411;28;20446;-71
2023/06/18 14:20:15;;;;;;;0.70;0.20;;;31.40;1.00;;;;;;4951640;29;20445;-72
2023/06/18 14:22:47;;;;;;;0.70;0.20;;;31.50;1.00;;;;;;4951896;28;21085;-75
2023/06/18 14:25:15;;;;;;;0.70;0.20;;;31.60;1.00;;;;;;4955327;29;20818;-74
2023/06/18 14:27:48;;;;;;;0.80;0.57;;;31.60;1.00;;;;;;4955831;29;20936;-75
2023/06/18 14:30:17;;;;;;;0.70;0.20;;;31.50;1.00;;;;;;4956951;29;20489;-72
2023/06/18 14:32:46;;;;;;;1.70;0.70;;;31.50;1.00;;;;;;4953520;28;20479;-76
2023/06/18 14:35:15;;;;;;;0.70;0.17;;;31.50;1.00;;;;;;4960539;28;20540;-76
2023/06/18 14:37:43;;;;;;;0.70;0.10;;;31.50;1.00;;;;;;4981086;28;20458;-72
2023/06/18 14:40:13;;;;;;;0.70;0.20;;;31.40;1.00;;;;;;4992409;28;20442;-73
2023/06/18 14:42:42;;;;;;;4.33;1.60;;;31.40;1.00;;;;;;4982488;28;20467;-72
2023/06/18 14:45:10;;;;;;;0.70;0.20;;;31.60;1.00;;;;;;4985943;28;21001;-74
2023/06/18 14:47:40;;;;;;;0.70;0.20;;;31.60;1.00;;;;;;4967993;28;20483;-73
2023/06/18 14:50:11;;;;;;;0.70;0.20;;;31.60;1.00;;;;;;4956594;28;20454;-73
2023/06/18 14:52:39;;;;;;;0.70;0.20;;;31.60;1.00;;;;;;4968350;28;20994;-74
2023/06/18 14:55:08;;;;;;;0.70;0.10;;;31.60;1.00;;;;;;4976570;28;20488;-73
2023/06/18 14:57:36;;;;;;;0.70;0.17;;;31.80;1.00;;;;;;4976705;28;20463;-75
2023/06/18 15:00:06;;;;;;;1.67;1.20;;;32.00;1.00;;;;;;4976349;28;20871;-78
2023/06/18 15:02:34;;;;;;;0.70;0.20;;;32.20;1.00;;;;;;4976440;28;20446;-79
2023/06/18 15:05:02;;;;;;;0.70;0.20;;;32.30;1.00;;;;;;4977032;28;20476;-78
2023/06/18 15:07:32;;;;;;;0.70;0.10;;;32.30;1.00;;;;;;4971654;28;20980;-76
2023/06/18 15:10:00;;;;;;;0.70;0.20;;;32.50;1.00;;;;;;4986607;28;20838;-78
2023/06/18 15:12:28;;;;;;;0.70;0.20;;;32.60;1.00;;;;;;4978190;28;20476;-76
2023/06/18 15:14:56;;;;;;;0.70;0.40;;;32.70;1.00;;;;;;4970478;28;20756;-77
2023/06/18 15:17:24;;;;;;;0.70;0.20;;;32.80;1.00;;;;;;4988858;28;20469;-75
2023/06/18 15:19:56;;;;;;;0.70;0.20;;;32.70;1.00;;;;;;4976024;28;20469;-74
2023/06/18 15:22:25;;;;;;;0.70;0.20;;;32.70;1.00;;;;;;4983617;28;20460;-78
2023/06/18 15:24:54;;;;;;;0.70;0.20;;;32.90;1.00;;;;;;4980066;28;20470;-77
2023/06/18 15:27:22;;;;;;;0.70;0.20;;;32.90;1.00;;;;;;4996898;28;20475;-77
2023/06/18 15:29:51;;;;;;;0.70;0.20;;;33.00;1.00;;;;;;4990601;28;20449;-77
2023/06/18 15:32:19;;;;;;;0.80;0.40;;;33.20;1.00;;;;;;4976435;28;20484;-77
2023/06/18 15:34:48;;;;;;;0.70;0.20;;;33.40;1.00;;;;;;4976780;28;20584;-77
2023/06/18 15:37:16;;;;;;;0.70;0.20;;;33.50;1.00;;;;;;4976512;28;20519;-77
2023/06/18 15:39:46;;;;;;;0.70;0.30;;;33.40;1.00;;;;;;4976138;28;20453;-77
2023/06/18 15:42:16;;;;;;;2.00;1.80;;;;;;;;;;4975356;28;20552;-78
2023/06/18 15:44:44;;;;;;;0.70;0.20;;;33.10;1.00;;;;;;4975947;28;20515;-77
2023/06/18 15:47:12;;;;;;;0.70;0.20;;;32.90;1.00;;;;;;4973772;28;20561;-75
2023/06/18 15:49:40;;;;;;;0.70;0.20;;;33.00;1.00;;;;;;4984031;28;20446;-77
2023/06/18 15:52:08;;;;;;;0.70;0.20;;;33.20;1.00;;;;;;4995069;28;20445;-74
2023/06/18 15:54:36;;;;;;;0.70;0.20;;;33.30;1.00;;;;;;4994173;28;20490;-73
2023/06/18 15:57:05;;;;;;;0.70;0.20;;;33.50;1.00;;;;;;4995056;28;20547;-72
2023/06/18 15:59:34;;;;;;;0.70;0.20;;;33.50;1.00;;;;;;4978345;28;20541;-71
2023/06/18 16:02:02;;;;;;;0.70;0.20;;;33.60;1.00;;;;;;4975218;28;20437;-71
2023/06/18 16:04:30;;;;;;;0.90;0.53;;;33.50;1.00;;;;;;4975065;28;20552;-73
2023/06/18 16:06:58;;;;;;;0.70;0.20;;;33.40;1.00;;;;;;4974962;28;20446;-72
2023/06/18 16:09:26;;;;;;;1.33;1.20;;;33.30;1.00;;;;;;4974571;28;20457;-74
2023/06/18 16:11:54;;;;;;;0.90;0.70;;;33.30;1.00;;;;;;4978148;28;20470;-75
2023/06/18 16:14:22;;;;;;;0.70;0.13;;;33.50;1.00;;;;;;4994124;28;20488;-74
2023/06/18 16:16:52;;;;;;;0.70;0.20;;;33.70;1.00;;;;;;4993722;28;20440;-73
2023/06/18 16:19:19;;;;;;;0.70;0.20;;;33.60;1.00;;;;;;4975618;28;20446;-73
2023/06/18 16:21:47;;;;;;;0.70;0.20;;;33.80;1.00;;;;;;4975560;28;20450;-75
2023/06/18 16:24:16;;;;;;;0.70;0.20;;;34.00;1.00;;;;;;4976076;28;20553;-74
2023/06/18 16:26:45;;;;;;;0.70;0.20;;;;;;;;;;4974174;28;20450;-76
2023/06/18 16:29:13;;;;;;;1.10;0.37;;;34.20;1.00;;;;;;4971257;28;20450;-73
2023/06/18 16:31:41;;;;;;;0.70;0.33;;;34.50;1.00;;;;;;4966830;28;20508;-72
2023/06/18 16:34:10;;;;;;;0.70;0.20;;;34.50;1.00;;;;;;4967947;28;20544;-72
2023/06/18 16:36:38;;;;;;;0.70;0.20;;;34.50;1.00;;;;;;4966077;28;20513;-73
2023/06/18 16:39:06;;;;;;;0.70;0.20;;;34.50;1.00;;;;;;4955830;29;20748;-71
2023/06/18 16:41:34;;;;;;;0.70;0.20;;;34.30;1.00;;;;;;4962378;28;20870;-70
2023/06/18 16:44:02;;;;;;;0.70;0.20;;;34.10;1.00;;;;;;4966281;28;20482;-71
2023/06/18 16:46:30;;;;;;;0.70;0.23;;;34.10;1.00;;;;;;4967315;28;20593;-73
2023/06/18 16:48:57;;;;;;;0.70;0.20;;;34.00;1.00;;;;;;4972819;28;21078;-73
2023/06/18 16:51:27;;;;;;;0.70;0.20;;;33.90;1.00;;;;;;4986179;28;20453;-73
2023/06/18 16:53:55;;;;;;;0.70;0.17;;;33.80;1.00;;;;;;4973885;28;20484;-71
2023/06/18 16:56:23;;;;;;;0.70;0.20;;;33.70;1.00;;;;;;4983030;28;20484;-71
2023/06/18 16:58:50;;;;;;;0.70;0.20;;;33.60;1.00;;;;;;4983883;28;20464;-71
2023/06/18 17:01:18;;;;;;;0.70;0.20;;;33.60;1.00;;;;;;4973912;28;20491;-72
2023/06/18 17:03:48;;;;;;;0.70;0.20;;;33.70;1.00;;;;;;4974583;28;20508;-72
2023/06/18 17:06:16;;;;;;;1.57;1.47;;;33.70;1.00;;;;;;4969108;28;20494;-72
2023/06/18 17:08:45;;;;;;;0.70;0.20;;;33.80;1.00;;;;;;4971652;28;20441;-72
2023/06/18 17:11:15;;;;;;;0.70;0.20;;;33.80;1.00;;;;;;4963554;28;20541;-72
2023/06/18 17:13:43;;;;;;;10.33;2.00;;;33.90;1.00;;;;;;4960635;28;20453;-73